Knoxville, Texas
Current Conditions -  °F | °C
As of 6:15 AM on Friday 24 Oct 2014 (Local Time) from KT82 Reporting Station
Clear Clear  
Wind Chill: 55°   Ceiling: Unl
Heat Index: 55°   Visibility: 7mi
Dew Point: 53°   Wind: 3mph
Humidity: 94%   Direction: 300°WNW
Pressure: 30.15"   Gusts: NA
Location:  30.3145°N, 99.2255°W
Report Text: KT82 241115Z AUTO 30003KT 7SM CLR 13/12 A3015 RMK AO2 T01250116
Loading
Personal Weather Stations






























Interactive Weather Map
Tropical Storm Tracking
New forecast layout! Learn more

10-Day Weather Forecast

Advertisements
Track Severe Weather on mobile